createdAt,value
2024-05-09T00:00:01.056Z,70.92
2024-05-09T00:01:01.071Z,71.63
2024-05-09T00:02:01.074Z,72.79
2024-05-09T00:03:01.348Z,71.73
2024-05-09T00:04:01.058Z,72.79
2024-05-09T00:05:01.098Z,72.11
2024-05-09T00:06:01.188Z,71.77
2024-05-09T00:07:01.030Z,71.46
2024-05-09T00:08:01.212Z,71.25
2024-05-09T00:09:01.007Z,71.66
2024-05-09T00:10:00.957Z,71.77
2024-05-09T00:11:01.051Z,71.36
2024-05-09T00:12:01.141Z,72.38
2024-05-09T00:13:01.004Z,72.89
2024-05-09T00:14:01.036Z,72.89
2024-05-09T00:15:00.923Z,72.07
2024-05-09T00:16:00.923Z,71.83
2024-05-09T00:17:01.083Z,72.24
2024-05-09T00:18:01.384Z,71.66
2024-05-09T00:19:01.013Z,71.66
2024-05-09T00:20:00.960Z,70.71
2024-05-09T00:21:00.997Z,70.30
2024-05-09T00:22:00.915Z,70.30
2024-05-09T00:23:00.881Z,71.12
2024-05-09T00:24:00.861Z,70.64
2024-05-09T00:25:00.878Z,71.15
2024-05-09T00:26:00.902Z,71.05
2024-05-09T00:27:00.860Z,71.77
2024-05-09T00:28:00.955Z,71.46
2024-05-09T00:29:00.895Z,71.05
2024-05-09T00:30:00.807Z,71.46
2024-05-09T00:31:00.810Z,71.36
2024-05-09T00:32:00.894Z,71.66
2024-05-09T00:33:01.095Z,71.66
2024-05-09T00:34:01.090Z,71.77
2024-05-09T00:35:00.829Z,71.66
2024-05-09T00:36:00.761Z,71.97
2024-05-09T00:37:00.803Z,72.62
2024-05-09T00:38:01.240Z,73.13
2024-05-09T00:39:00.743Z,73.36
2024-05-09T00:40:00.733Z,73.16
2024-05-09T00:41:00.913Z,72.96
2024-05-09T00:42:00.752Z,73.40
2024-05-09T00:43:00.725Z,72.86
2024-05-09T00:44:00.769Z,73.68
2024-05-09T00:45:00.704Z,72.86
2024-05-09T00:46:00.695Z,72.00
2024-05-09T00:47:00.746Z,72.41
2024-05-09T00:48:01.111Z,72.82
2024-05-09T00:49:00.813Z,72.14
2024-05-09T00:50:00.875Z,72.11
2024-05-09T00:51:00.837Z,72.00
2024-05-09T00:52:00.671Z,71.70
2024-05-09T00:53:00.735Z,72.72
2024-05-09T00:54:00.652Z,71.70
2024-05-09T00:55:00.696Z,72.11
2024-05-09T00:56:00.702Z,72.62
2024-05-09T00:57:00.646Z,72.62
2024-05-09T00:58:00.640Z,72.65
2024-05-09T00:59:00.699Z,73.54
2024-05-09T01:00:00.657Z,73.44
2024-05-09T01:01:00.727Z,73.23
2024-05-09T01:02:00.657Z,73.64
2024-05-09T01:03:00.750Z,73.06
2024-05-09T01:04:00.672Z,73.78
2024-05-09T01:05:00.741Z,74.02
2024-05-09T01:06:00.580Z,73.68
2024-05-09T01:07:00.568Z,73.78
2024-05-09T01:08:00.713Z,74.08
2024-05-09T01:09:00.540Z,74.32
2024-05-09T01:10:00.536Z,74.22
2024-05-09T01:11:00.732Z,72.78
2024-05-09T01:12:00.685Z,73.06
2024-05-09T01:13:00.543Z,74.22
2024-05-09T01:14:00.505Z,74.11
2024-05-09T01:15:00.615Z,74.43
2024-05-09T01:16:00.547Z,74.46
2024-05-09T01:17:00.499Z,74.22
2024-05-09T01:18:00.712Z,74.87
2024-05-09T01:19:00.516Z,74.97
2024-05-09T01:20:00.517Z,75.28
2024-05-09T01:21:00.488Z,76.40
2024-05-09T01:22:00.438Z,77.06
2024-05-09T01:23:00.511Z,77.81
2024-05-09T01:24:00.441Z,78.16
2024-05-09T01:25:00.431Z,78.46
2024-05-09T01:26:00.616Z,79.38
2024-05-09T01:27:00.400Z,79.59
2024-05-09T01:28:00.403Z,78.87
2024-05-09T01:29:00.460Z,79.08
2024-05-09T01:30:00.455Z,78.46
2024-05-09T01:31:00.402Z,78.77
2024-05-09T01:32:00.512Z,77.61
2024-05-09T01:33:00.523Z,77.40
2024-05-09T01:34:00.461Z,77.61
2024-05-09T01:35:00.453Z,78.02
2024-05-09T01:36:00.345Z,78.16
2024-05-09T01:37:00.357Z,79.49
2024-05-09T01:38:00.476Z,79.49
2024-05-09T01:39:00.313Z,79.28
2024-05-09T01:40:00.316Z,79.63
2024-05-09T01:41:00.463Z,79.18
2024-05-09T01:42:00.339Z,79.18
2024-05-09T01:43:00.313Z,79.38
2024-05-09T01:44:00.437Z,79.59
2024-05-09T01:45:00.359Z,77.74
2024-05-09T01:46:00.269Z,78.05
2024-05-09T01:47:00.307Z,78.25
2024-05-09T01:48:00.726Z,79.18
2024-05-09T01:49:00.346Z,79.08
2024-05-09T01:50:00.363Z,78.81
2024-05-09T01:51:00.286Z,78.46
2024-05-09T01:52:00.269Z,79.28
2024-05-09T01:53:00.278Z,79.63
2024-05-09T01:54:00.237Z,80.28
2024-05-09T01:55:02.759Z,80.58
2024-05-09T01:56:00.260Z,80.58
2024-05-09T01:57:00.199Z,81.55
2024-05-09T01:58:00.234Z,82.41
2024-05-09T01:59:00.243Z,82.06
2024-05-09T02:00:00.210Z,82.92
2024-05-09T02:01:00.234Z,82.57
2024-05-09T02:02:00.355Z,81.96
2024-05-09T02:03:00.374Z,81.92
2024-05-09T02:04:00.416Z,80.58
2024-05-09T02:05:00.565Z,80.28
2024-05-09T02:06:00.158Z,79.83
2024-05-09T02:07:00.160Z,79.93
2024-05-09T02:08:00.620Z,80.04
2024-05-09T02:09:00.094Z,80.18
2024-05-09T02:10:00.178Z,80.07
2024-05-09T02:11:00.225Z,80.90
2024-05-09T02:12:00.181Z,80.69
2024-05-09T02:13:00.101Z,80.69
2024-05-09T02:14:00.285Z,80.90
2024-05-09T02:15:00.154Z,80.69
2024-05-09T02:16:00.093Z,80.69
2024-05-09T02:17:00.135Z,81.24
2024-05-09T02:18:00.144Z,81.76
2024-05-09T02:19:00.112Z,82.06
2024-05-09T02:20:00.055Z,81.55
2024-05-09T02:21:00.183Z,82.06
2024-05-09T02:22:00.045Z,82.71
2024-05-09T02:23:00.097Z,82.20
2024-05-09T02:23:59.998Z,81.86
2024-05-09T02:24:59.991Z,82.10
2024-05-09T02:26:00.068Z,81.90
2024-05-09T02:26:59.976Z,81.86
2024-05-09T02:28:00.015Z,82.10
2024-05-09T02:29:00.179Z,82.00
2024-05-09T02:29:59.962Z,82.20
2024-05-09T02:30:59.943Z,82.20
2024-05-09T02:32:00.098Z,82.51
2024-05-09T02:33:00.163Z,82.31
2024-05-09T02:34:00.058Z,80.97
2024-05-09T02:34:59.975Z,80.83
2024-05-09T02:35:59.931Z,80.21
2024-05-09T02:36:59.908Z,80.73
2024-05-09T02:38:00.131Z,80.42
2024-05-09T02:38:59.926Z,79.91
2024-05-09T02:39:59.893Z,79.97
2024-05-09T02:40:59.953Z,79.97
2024-05-09T02:41:59.876Z,80.07
2024-05-09T02:42:59.873Z,79.97
2024-05-09T02:43:59.961Z,79.46
2024-05-09T02:44:59.864Z,79.77
2024-05-09T02:45:59.855Z,80.18
2024-05-09T02:46:59.864Z,80.42
2024-05-09T02:48:00.190Z,80.21
2024-05-09T02:48:59.968Z,80.93
2024-05-09T02:50:00.003Z,80.73
2024-05-09T02:50:59.990Z,81.04
2024-05-09T02:51:59.814Z,81.04
2024-05-09T02:52:59.839Z,81.69
2024-05-09T02:53:59.813Z,82.10
2024-05-09T02:54:59.867Z,80.87
2024-05-09T02:55:59.834Z,80.66
2024-05-09T02:56:59.772Z,81.18
2024-05-09T02:57:59.819Z,80.97
2024-05-09T02:58:59.869Z,81.38
2024-05-09T02:59:59.754Z,81.69
2024-05-09T03:00:59.792Z,81.79
2024-05-09T03:01:59.856Z,81.28
2024-05-09T03:02:59.975Z,80.56
2024-05-09T03:03:59.901Z,80.56
2024-05-09T03:04:59.856Z,79.70
2024-05-09T03:05:59.717Z,79.60
2024-05-09T03:06:59.708Z,79.49
2024-05-09T03:07:59.739Z,79.91
2024-05-09T03:08:59.858Z,79.39
2024-05-09T03:09:59.703Z,79.39
2024-05-09T03:10:59.789Z,79.46
2024-05-09T03:11:59.775Z,79.46
2024-05-09T03:12:59.669Z,79.66
2024-05-09T03:13:59.710Z,79.77
2024-05-09T03:14:59.693Z,78.85
2024-05-09T03:15:59.657Z,78.43
2024-05-09T03:16:59.687Z,79.66
2024-05-09T03:17:59.970Z,79.70
2024-05-09T03:18:59.786Z,79.70
2024-05-09T03:19:59.678Z,79.87
2024-05-09T03:20:59.783Z,79.87
2024-05-09T03:21:59.608Z,79.66
2024-05-09T03:22:59.622Z,78.53
2024-05-09T03:23:59.599Z,79.60
2024-05-09T03:24:59.595Z,80.52
2024-05-09T03:25:59.813Z,80.15
2024-05-09T03:26:59.581Z,81.18
2024-05-09T03:27:59.887Z,81.69
2024-05-09T03:28:59.679Z,82.55
2024-05-09T03:29:59.554Z,83.31
2024-05-09T03:30:59.576Z,84.13
2024-05-09T03:31:59.824Z,84.27
2024-05-09T03:32:59.735Z,84.48
2024-05-09T03:33:59.726Z,84.75
2024-05-09T03:34:59.604Z,84.54
2024-05-09T03:35:59.540Z,83.83
2024-05-09T03:36:59.529Z,83.78
2024-05-09T03:37:59.548Z,83.11
2024-05-09T03:38:59.543Z,82.86
2024-05-09T03:39:59.493Z,82.20
2024-05-09T03:40:59.619Z,81.90
2024-05-09T03:41:59.477Z,80.97
2024-05-09T03:42:59.471Z,80.73
2024-05-09T03:43:59.495Z,80.73
2024-05-09T03:44:59.470Z,80.32
2024-05-09T03:45:59.515Z,80.01
2024-05-09T03:46:59.499Z,79.49
2024-05-09T03:47:59.567Z,79.80
2024-05-09T03:48:59.491Z,79.91
2024-05-09T03:49:59.444Z,79.49
2024-05-09T03:50:59.482Z,79.60
2024-05-09T03:51:59.415Z,79.70
2024-05-09T03:52:59.474Z,79.49
2024-05-09T03:53:59.403Z,79.56
2024-05-09T03:54:59.406Z,78.33
2024-05-09T03:55:59.449Z,79.25
2024-05-09T03:56:59.378Z,79.25
2024-05-09T03:57:59.568Z,78.53
2024-05-09T03:58:59.429Z,79.77
2024-05-09T03:59:59.403Z,78.33
2024-05-09T04:00:59.421Z,79.08
2024-05-09T04:01:59.571Z,78.47
2024-05-09T04:02:59.614Z,79.49
2024-05-09T04:03:59.395Z,79.70
2024-05-09T04:04:59.357Z,79.70
2024-05-09T04:05:59.366Z,79.49
2024-05-09T04:06:59.332Z,79.39
2024-05-09T04:07:59.365Z,79.49
2024-05-09T04:08:59.333Z,78.27
2024-05-09T04:09:59.306Z,78.64
2024-05-09T04:10:59.462Z,78.64
2024-05-09T04:11:59.492Z,78.43
2024-05-09T04:12:59.282Z,78.02
2024-05-09T04:13:59.315Z,79.29
2024-05-09T04:14:59.265Z,79.91
2024-05-09T04:15:59.334Z,79.39
2024-05-09T04:16:59.299Z,79.49
2024-05-09T04:18:00.035Z,79.70
2024-05-09T04:18:59.288Z,79.80
2024-05-09T04:19:59.281Z,79.70
2024-05-09T04:20:59.365Z,79.80
2024-05-09T04:21:59.234Z,79.80
2024-05-09T04:22:59.239Z,79.60
2024-05-09T04:23:59.198Z,78.47
2024-05-09T04:24:59.214Z,79.77
2024-05-09T04:25:59.270Z,79.87
2024-05-09T04:26:59.223Z,79.91
2024-05-09T04:27:59.194Z,79.49
2024-05-09T04:28:59.218Z,79.46
2024-05-09T04:29:59.177Z,79.60
2024-05-09T04:30:59.162Z,79.39
2024-05-09T04:31:59.288Z,79.08
2024-05-09T04:32:59.301Z,79.19
2024-05-09T04:33:59.238Z,79.80
2024-05-09T04:34:59.212Z,79.49
2024-05-09T04:35:59.183Z,79.66
2024-05-09T04:36:59.125Z,79.56
2024-05-09T04:37:59.159Z,77.88
2024-05-09T04:38:59.102Z,78.67
2024-05-09T04:39:59.092Z,79.28
2024-05-09T04:40:59.163Z,78.12
2024-05-09T04:41:59.086Z,77.67
2024-05-09T04:42:59.073Z,76.51
2024-05-09T04:43:59.091Z,76.72
2024-05-09T04:44:59.050Z,76.27
2024-05-09T04:45:59.084Z,75.35
2024-05-09T04:46:59.114Z,75.04
2024-05-09T04:47:59.543Z,74.29
2024-05-09T04:48:59.122Z,74.19
2024-05-09T04:49:59.059Z,73.98
2024-05-09T04:50:59.048Z,74.29
2024-05-09T04:51:59.020Z,74.05
2024-05-09T04:52:59.043Z,74.39
2024-05-09T04:53:58.990Z,74.49
2024-05-09T04:54:59.154Z,74.46
2024-05-09T04:55:59.055Z,74.97
2024-05-09T04:56:59.002Z,74.26
2024-05-09T04:57:58.964Z,74.46
2024-05-09T04:58:59.004Z,73.71
2024-05-09T04:59:58.948Z,73.23
2024-05-09T05:00:59.050Z,73.61
2024-05-09T05:01:59.071Z,73.61
2024-05-09T05:02:59.173Z,74.05
2024-05-09T05:03:59.278Z,74.05
2024-05-09T05:04:58.978Z,74.80
2024-05-09T05:05:59.000Z,75.10
2024-05-09T05:07:02.150Z,75.17
2024-05-09T05:07:58.943Z,74.66
2024-05-09T05:08:58.890Z,74.32
2024-05-09T05:09:58.875Z,73.64
2024-05-09T05:10:58.992Z,73.74
2024-05-09T05:11:58.974Z,72.52
2024-05-09T05:12:58.879Z,72.55
2024-05-09T05:13:58.991Z,70.92
2024-05-09T05:14:58.839Z,70.95
2024-05-09T05:15:58.940Z,71.73
2024-05-09T05:16:58.846Z,70.61
2024-05-09T05:17:59.035Z,71.43
2024-05-09T05:18:58.877Z,71.09
2024-05-09T05:19:58.893Z,70.48
2024-05-09T05:20:58.936Z,70.27
2024-05-09T05:21:58.789Z,69.80
2024-05-09T05:22:58.814Z,69.42
2024-05-09T05:23:58.776Z,69.49
2024-05-09T05:24:58.762Z,68.75
2024-05-09T05:25:58.826Z,68.95
2024-05-09T05:26:58.750Z,69.23
2024-05-09T05:27:58.749Z,67.52
2024-05-09T05:28:58.798Z,67.69
2024-05-09T05:29:58.736Z,67.39
2024-05-09T05:30:58.753Z,67.90
2024-05-09T05:31:58.791Z,67.26
2024-05-09T05:32:58.875Z,67.13
2024-05-09T05:33:59.048Z,66.41
2024-05-09T05:34:58.746Z,66.00
2024-05-09T05:35:58.714Z,66.15
2024-05-09T05:36:58.680Z,65.13
2024-05-09T05:37:58.809Z,65.84
2024-05-09T05:38:58.722Z,65.64
2024-05-09T05:39:58.663Z,65.71
2024-05-09T05:40:58.710Z,65.17
2024-05-09T05:41:58.653Z,65.07
2024-05-09T05:42:58.640Z,64.30
2024-05-09T05:43:58.679Z,62.95
2024-05-09T05:44:58.638Z,62.08
2024-05-09T05:45:58.718Z,61.51
2024-05-09T05:46:58.629Z,62.04
2024-05-09T05:47:58.796Z,62.52
2024-05-09T05:48:58.801Z,61.53
2024-05-09T05:49:58.633Z,61.76
2024-05-09T05:50:59.434Z,63.42
2024-05-09T05:51:58.572Z,64.23
2024-05-09T05:52:58.657Z,64.03
2024-05-09T05:53:58.562Z,64.23
2024-05-09T05:54:58.555Z,64.00
2024-05-09T05:55:58.788Z,64.10
2024-05-09T05:56:58.548Z,64.30
2024-05-09T05:57:58.549Z,64.30
2024-05-09T05:58:58.581Z,64.94
2024-05-09T05:59:58.522Z,65.04
2024-05-09T06:00:58.627Z,64.76
2024-05-09T06:01:58.545Z,65.51
2024-05-09T06:02:58.593Z,65.78
2024-05-09T06:03:58.650Z,65.99
2024-05-09T06:04:58.565Z,65.68
2024-05-09T06:05:59.021Z,65.37
2024-05-09T06:06:58.483Z,65.45
2024-05-09T06:07:58.530Z,65.24
2024-05-09T06:08:58.517Z,65.04
2024-05-09T06:09:58.448Z,65.45
2024-05-09T06:10:58.533Z,64.84
2024-05-09T06:11:58.493Z,65.45
2024-05-09T06:12:58.436Z,65.95
2024-05-09T06:13:58.478Z,65.04
2024-05-09T06:14:58.414Z,66.16
2024-05-09T06:15:58.438Z,64.73
2024-05-09T06:16:58.536Z,64.70
2024-05-09T06:17:59.051Z,65.21
2024-05-09T06:18:58.505Z,65.72
2024-05-09T06:19:58.417Z,65.56
2024-05-09T06:20:58.439Z,64.31
2024-05-09T06:21:58.515Z,63.54
2024-05-09T06:22:58.399Z,61.39
2024-05-09T06:23:58.363Z,60.38
2024-05-09T06:24:58.352Z,61.65
2024-05-09T06:25:58.437Z,61.65
2024-05-09T06:26:58.385Z,62.92
2024-05-09T06:27:58.334Z,63.43
2024-05-09T06:28:58.382Z,63.81
2024-05-09T06:29:58.317Z,62.38
2024-05-09T06:30:58.331Z,63.09
2024-05-09T06:32:00.106Z,63.50
2024-05-09T06:32:58.496Z,63.73
2024-05-09T06:33:58.444Z,64.27
2024-05-09T06:34:58.340Z,64.67
2024-05-09T06:35:58.302Z,64.34
2024-05-09T06:36:58.368Z,63.73
2024-05-09T06:37:58.318Z,62.99
2024-05-09T06:38:58.292Z,63.15
2024-05-09T06:39:58.253Z,63.49
2024-05-09T06:40:58.394Z,63.29
2024-05-09T06:41:58.249Z,63.92
2024-05-09T06:42:58.297Z,64.50
2024-05-09T06:43:58.267Z,64.98
2024-05-09T06:44:58.254Z,64.54
2024-05-09T06:45:58.228Z,64.89
2024-05-09T06:46:59.838Z,63.01
2024-05-09T06:47:58.390Z,61.25
2024-05-09T06:48:58.399Z,59.36
2024-05-09T06:49:58.238Z,59.84
2024-05-09T06:50:58.243Z,60.32
2024-05-09T06:51:58.183Z,58.78
2024-05-09T06:52:58.223Z,58.75
2024-05-09T06:53:58.155Z,58.45
2024-05-09T06:54:58.145Z,57.97
2024-05-09T06:55:58.387Z,58.78
2024-05-09T06:56:58.155Z,58.27
2024-05-09T06:57:58.151Z,58.37
2024-05-09T06:58:58.187Z,58.98
2024-05-09T06:59:58.109Z,59.15
2024-05-09T07:00:58.237Z,58.62
2024-05-09T07:01:58.145Z,56.98
2024-05-09T07:03:00.113Z,56.77
2024-05-09T07:03:58.207Z,56.73
2024-05-09T07:04:58.142Z,58.47
2024-05-09T07:05:58.156Z,58.70
2024-05-09T07:06:58.066Z,59.61
2024-05-09T07:07:58.087Z,59.11
2024-05-09T07:08:58.050Z,59.28
2024-05-09T07:09:58.052Z,58.95
2024-05-09T07:10:58.338Z,58.98
2024-05-09T07:11:58.130Z,58.87
2024-05-09T07:12:58.031Z,59.91
2024-05-09T07:13:58.046Z,59.69
2024-05-09T07:14:58.179Z,59.12
2024-05-09T07:15:58.066Z,58.52
2024-05-09T07:16:58.113Z,58.76
2024-05-09T07:17:58.388Z,58.03
2024-05-09T07:18:58.115Z,57.98
2024-05-09T07:19:58.005Z,56.41
2024-05-09T07:20:58.043Z,55.71
2024-05-09T07:21:57.972Z,55.16
2024-05-09T07:22:58.012Z,53.75
2024-05-09T07:23:58.052Z,53.72
2024-05-09T07:24:57.983Z,53.82
2024-05-09T07:25:58.257Z,54.22
2024-05-09T07:26:57.943Z,53.39
2024-05-09T07:27:57.926Z,54.00
2024-05-09T07:28:57.949Z,53.17
2024-05-09T07:29:57.939Z,51.76
2024-05-09T07:30:57.930Z,53.34
2024-05-09T07:31:57.935Z,52.24
2024-05-09T07:32:58.195Z,51.92
2024-05-09T07:33:57.927Z,52.01
2024-05-09T07:34:57.940Z,53.09
2024-05-09T07:35:57.916Z,53.02
2024-05-09T07:36:57.908Z,53.65
2024-05-09T07:37:57.939Z,54.68
2024-05-09T07:38:58.072Z,54.50
2024-05-09T07:39:57.860Z,55.23
2024-05-09T07:40:57.963Z,55.76
2024-05-09T07:41:57.839Z,56.77
2024-05-09T07:42:57.827Z,56.31
2024-05-09T07:43:57.853Z,55.58
2024-05-09T07:45:14.558Z,54.75
2024-05-09T07:46:23.019Z,54.20
2024-05-09T07:49:44.336Z,52.34
2024-05-09T07:51:33.063Z,51.26
2024-05-09T07:53:00.833Z,51.42
2024-05-09T07:53:22.012Z,52.01
2024-05-09T07:54:00.615Z,53.27
2024-05-09T07:54:57.923Z,53.55
2024-05-09T07:55:58.073Z,52.24
2024-05-09T07:56:57.892Z,53.22
2024-05-09T07:57:57.837Z,52.01
2024-05-09T07:58:57.735Z,52.39
2024-05-09T07:59:57.712Z,52.09
2024-05-09T08:00:57.861Z,51.09
2024-05-09T08:01:57.838Z,51.54
2024-05-09T08:02:57.703Z,52.19
2024-05-09T08:03:57.893Z,53.12
2024-05-09T08:04:57.817Z,53.42
2024-05-09T08:05:57.701Z,53.50
2024-05-09T08:06:57.714Z,54.30
2024-05-09T08:07:57.663Z,54.07
2024-05-09T08:09:00.733Z,54.55
2024-05-09T08:09:58.672Z,53.12
2024-05-09T08:10:57.674Z,50.16
2024-05-09T08:11:57.735Z,49.24
2024-05-09T08:12:57.727Z,48.99
2024-05-09T08:13:57.725Z,47.37
2024-05-09T08:14:57.623Z,48.02
2024-05-09T08:15:58.108Z,48.10
2024-05-09T08:16:57.660Z,47.28
2024-05-09T08:17:57.709Z,47.63
2024-05-09T08:18:57.773Z,47.14
2024-05-09T08:19:57.596Z,47.03
2024-05-09T08:20:57.611Z,45.84
2024-05-09T08:21:57.611Z,45.84
2024-05-09T08:22:57.569Z,46.11
2024-05-09T08:23:57.571Z,47.63
2024-05-09T08:24:57.600Z,48.10
2024-05-09T08:25:57.851Z,48.39
2024-05-09T08:26:57.530Z,48.05
2024-05-09T08:27:57.548Z,48.52
2024-05-09T08:28:57.521Z,48.08
2024-05-09T08:29:57.532Z,47.36
2024-05-09T08:30:57.712Z,46.34
2024-05-09T08:31:57.649Z,45.94
2024-05-09T08:32:57.574Z,46.01
2024-05-09T08:33:57.678Z,46.04
2024-05-09T08:34:57.521Z,44.82
2024-05-09T08:35:57.495Z,45.12
2024-05-09T08:36:59.687Z,45.60
2024-05-09T08:37:57.566Z,45.57
2024-05-09T08:38:57.472Z,44.66
2024-05-09T08:39:57.480Z,43.64
2024-05-09T08:40:57.559Z,43.02
2024-05-09T08:41:57.446Z,43.13
2024-05-09T08:42:57.468Z,43.13
2024-05-09T08:43:57.427Z,43.13
2024-05-09T08:44:57.427Z,42.53
2024-05-09T08:45:57.494Z,41.36
2024-05-09T08:46:57.407Z,43.37
2024-05-09T08:47:57.528Z,43.74
2024-05-09T08:48:57.597Z,44.04
2024-05-09T08:49:57.549Z,43.02
2024-05-09T08:50:57.409Z,44.00
2024-05-09T08:51:57.481Z,43.30
2024-05-09T08:52:57.371Z,42.69
2024-05-09T08:53:57.368Z,42.57
2024-05-09T08:54:57.381Z,42.49
2024-05-09T08:55:57.377Z,42.99
2024-05-09T08:56:57.362Z,42.27
2024-05-09T08:57:57.377Z,42.37
2024-05-09T08:58:57.348Z,43.24
2024-05-09T08:59:57.336Z,42.82
2024-05-09T09:00:57.421Z,40.84
2024-05-09T09:01:57.414Z,41.81
2024-05-09T09:02:57.329Z,40.33
2024-05-09T09:03:57.388Z,39.34
2024-05-09T09:04:57.370Z,40.60
2024-05-09T09:05:57.363Z,40.60
2024-05-09T09:06:58.766Z,40.39
2024-05-09T09:07:57.284Z,39.61
2024-05-09T09:08:57.838Z,40.01
2024-05-09T09:09:57.310Z,39.69
2024-05-09T09:10:57.292Z,41.25
2024-05-09T09:11:57.276Z,39.58
2024-05-09T09:12:57.285Z,38.29
2024-05-09T09:13:57.232Z,36.41
2024-05-09T09:14:57.232Z,37.08
2024-05-09T09:15:57.467Z,37.38
2024-05-09T09:16:57.219Z,38.39
2024-05-09T09:17:57.362Z,37.48
2024-05-09T09:18:57.729Z,36.79
2024-05-09T09:19:57.309Z,35.70
2024-05-09T09:20:57.243Z,36.59
2024-05-09T09:21:57.319Z,36.67
2024-05-09T09:22:57.183Z,35.40
2024-05-09T09:23:57.155Z,36.97
2024-05-09T09:24:57.173Z,35.09
2024-05-09T09:25:57.161Z,35.68
2024-05-09T09:26:57.299Z,37.54
2024-05-09T09:27:57.581Z,35.37
2024-05-09T09:28:57.164Z,34.59
2024-05-09T09:29:57.358Z,34.00
2024-05-09T09:30:57.318Z,35.17
2024-05-09T09:31:57.269Z,35.27
2024-05-09T09:32:57.355Z,34.67
2024-05-09T09:33:57.668Z,33.98
2024-05-09T09:34:57.308Z,34.97
2024-05-09T09:35:57.418Z,35.25
2024-05-09T09:36:57.154Z,35.05
2024-05-09T09:37:57.117Z,35.04
2024-05-09T09:38:57.048Z,34.15
2024-05-09T09:39:57.083Z,33.25
2024-05-09T09:40:57.191Z,33.36
2024-05-09T09:41:57.024Z,33.08
2024-05-09T09:42:57.066Z,34.55
2024-05-09T09:43:57.008Z,35.75
2024-05-09T09:45:04.314Z,34.15
2024-05-09T09:45:58.507Z,35.35
2024-05-09T09:46:57.088Z,35.43
2024-05-09T09:47:57.198Z,33.65
2024-05-09T09:48:57.051Z,33.95
2024-05-09T09:49:57.039Z,33.85
2024-05-09T09:50:56.969Z,35.45
2024-05-09T09:51:57.001Z,34.05
2024-05-09T09:52:56.940Z,34.92
2024-05-09T09:53:56.931Z,35.02
2024-05-09T09:54:56.942Z,35.10
2024-05-09T09:55:56.937Z,35.40
2024-05-09T09:56:56.914Z,34.22
2024-05-09T09:57:56.953Z,35.38
2024-05-09T09:58:56.897Z,35.48
2024-05-09T09:59:56.888Z,33.13
2024-05-09T10:00:57.338Z,33.80
2024-05-09T10:01:57.085Z,35.10
2024-05-09T10:02:57.059Z,35.28
2024-05-09T10:03:56.995Z,33.00
2024-05-09T10:04:57.072Z,32.69
2024-05-09T10:05:56.899Z,33.00
2024-05-09T10:06:56.859Z,33.01
2024-05-09T10:07:56.842Z,33.79
2024-05-09T10:08:56.838Z,34.79
2024-05-09T10:09:56.974Z,34.30
2024-05-09T10:10:56.888Z,33.89
2024-05-09T10:12:56.892Z,34.06
2024-05-09T10:13:56.807Z,34.36
2024-05-09T10:14:56.796Z,34.06
2024-05-09T10:15:56.817Z,35.03
2024-05-09T10:16:56.781Z,34.03
2024-05-09T10:17:56.862Z,31.88
2024-05-09T10:18:56.959Z,31.31
2024-05-09T10:19:56.838Z,31.38
2024-05-09T10:20:56.752Z,32.77
2024-05-09T10:21:56.809Z,33.26
2024-05-09T10:22:56.753Z,33.25
2024-05-09T10:23:56.733Z,33.53
2024-05-09T10:24:56.776Z,32.82
2024-05-09T10:25:57.026Z,32.72
2024-05-09T10:26:56.695Z,29.66
2024-05-09T10:27:56.777Z,30.35
2024-05-09T10:28:56.679Z,32.51
2024-05-09T10:29:56.680Z,32.04
2024-05-09T10:30:56.744Z,30.17
2024-05-09T10:31:56.649Z,32.54
2024-05-09T10:32:56.826Z,31.84
2024-05-09T10:33:56.849Z,32.12
2024-05-09T10:34:56.871Z,30.65
2024-05-09T10:35:56.646Z,31.63
2024-05-09T10:36:56.651Z,32.02
2024-05-09T10:37:56.611Z,31.32
2024-05-09T10:38:56.618Z,28.78
2024-05-09T10:39:56.652Z,32.01
2024-05-09T10:40:56.628Z,29.64
2024-05-09T10:41:56.607Z,30.71
2024-05-09T10:42:56.648Z,29.82
2024-05-09T10:43:56.593Z,30.40
2024-05-09T10:44:56.594Z,30.96
2024-05-09T10:45:56.681Z,30.16
2024-05-09T10:46:56.612Z,28.40
2024-05-09T10:47:56.712Z,29.27
2024-05-09T10:48:56.726Z,28.08
2024-05-09T10:49:56.626Z,27.49
2024-05-09T10:50:56.546Z,27.59
2024-05-09T10:51:56.628Z,28.86
2024-05-09T10:52:56.517Z,28.16
2024-05-09T10:53:56.505Z,27.08
2024-05-09T10:54:56.634Z,27.08
2024-05-09T10:55:56.495Z,26.28
2024-05-09T10:56:56.503Z,28.23
2024-05-09T10:57:56.559Z,28.53
2024-05-09T10:58:56.485Z,27.15
2024-05-09T10:59:56.489Z,27.91
2024-05-09T11:00:56.551Z,28.39
2024-05-09T11:01:56.805Z,28.08
2024-05-09T11:02:56.487Z,27.47
2024-05-09T11:03:56.668Z,25.03
2024-05-09T11:04:56.634Z,23.77
2024-05-09T11:05:56.561Z,25.34
2024-05-09T11:06:56.504Z,26.40
2024-05-09T11:07:56.416Z,25.42
2024-05-09T11:08:56.409Z,25.51
2024-05-09T11:09:56.415Z,26.68
2024-05-09T11:10:56.500Z,24.93
2024-05-09T11:11:56.898Z,25.21
2024-05-09T11:12:56.439Z,26.36
2024-05-09T11:13:56.539Z,25.18
2024-05-09T11:14:56.371Z,23.93
2024-05-09T11:15:56.493Z,24.71
2024-05-09T11:16:56.354Z,24.90
2024-05-09T11:17:56.580Z,25.08
2024-05-09T11:18:56.844Z,24.78
2024-05-09T11:19:56.456Z,26.71
2024-05-09T11:20:56.549Z,25.35
2024-05-09T11:21:56.630Z,25.26
2024-05-09T11:22:56.324Z,24.38
2024-05-09T11:23:56.327Z,24.56
2024-05-09T11:24:56.385Z,23.79
2024-05-09T11:25:56.312Z,25.24
2024-05-09T11:26:56.295Z,24.56
2024-05-09T11:27:56.416Z,25.02
2024-05-09T11:28:56.297Z,24.66
2024-05-09T11:29:56.295Z,24.55
2024-05-09T11:30:56.316Z,25.12
2024-05-09T11:31:56.336Z,25.01
2024-05-09T11:32:56.404Z,23.27
2024-05-09T11:33:56.348Z,23.69
2024-05-09T11:34:56.243Z,23.97
2024-05-09T11:35:56.241Z,24.54
2024-05-09T11:36:56.292Z,22.78
2024-05-09T11:37:56.242Z,23.83
2024-05-09T11:38:56.277Z,23.93
2024-05-09T11:39:56.269Z,22.56
2024-05-09T11:40:56.261Z,22.94
2024-05-09T11:41:56.208Z,22.34
2024-05-09T11:42:56.228Z,22.56
2024-05-09T11:43:56.211Z,23.23
2024-05-09T11:44:56.205Z,24.03
2024-05-09T11:45:56.281Z,23.58
2024-05-09T11:46:56.177Z,24.78
2024-05-09T11:47:56.370Z,26.57
2024-05-09T11:48:56.408Z,26.41
2024-05-09T11:49:56.306Z,25.46
2024-05-09T11:50:56.153Z,25.37
2024-05-09T11:51:56.225Z,26.20
2024-05-09T11:52:56.166Z,26.70
2024-05-09T11:53:56.140Z,25.22
2024-05-09T11:54:56.210Z,25.29
2024-05-09T11:55:56.122Z,26.11
2024-05-09T11:56:56.107Z,27.25
2024-05-09T11:57:56.281Z,26.93
2024-05-09T11:58:56.095Z,26.72
2024-05-09T11:59:56.089Z,26.30
2024-05-09T12:00:56.179Z,25.49
2024-05-09T12:01:56.228Z,23.54
2024-05-09T12:02:56.134Z,24.90
2024-05-09T12:03:56.272Z,24.60
2024-05-09T12:04:56.167Z,23.72
2024-05-09T12:05:56.603Z,23.43
2024-05-09T12:06:56.121Z,24.79
2024-05-09T12:07:56.052Z,26.34
2024-05-09T12:08:56.089Z,25.58
2024-05-09T12:09:56.055Z,25.58
2024-05-09T12:10:56.464Z,25.02
2024-05-09T12:11:56.094Z,25.41
2024-05-09T12:12:56.033Z,26.48
2024-05-09T12:13:56.021Z,24.24
2024-05-09T12:14:56.002Z,22.63
2024-05-09T12:15:56.062Z,24.50
2024-05-09T12:16:56.057Z,27.05
2024-05-09T12:17:58.902Z,27.34
2024-05-09T12:18:57.200Z,27.93
2024-05-09T12:19:55.971Z,28.03
2024-05-09T12:20:55.993Z,28.72
2024-05-09T12:21:56.405Z,30.08
2024-05-09T12:22:55.955Z,28.03
2024-05-09T12:23:55.952Z,28.32
2024-05-09T12:24:55.997Z,27.05
2024-05-09T12:25:55.941Z,27.64
2024-05-09T12:26:55.964Z,27.73
2024-05-09T12:27:55.999Z,28.33
2024-05-09T12:28:55.928Z,27.17
2024-05-09T12:29:55.906Z,27.26
2024-05-09T12:30:56.001Z,27.76
2024-05-09T12:31:56.045Z,27.56
2024-05-09T12:32:56.235Z,28.45
2024-05-09T12:33:56.031Z,27.00
2024-05-09T12:34:55.880Z,27.78
2024-05-09T12:35:55.874Z,28.00
2024-05-09T12:36:55.899Z,28.11
2024-05-09T12:37:55.865Z,29.49
2024-05-09T12:38:55.981Z,28.02
2024-05-09T12:39:55.895Z,28.91
2024-05-09T12:40:56.137Z,30.96
2024-05-09T12:41:55.841Z,28.51
2024-05-09T12:42:55.882Z,28.69
2024-05-09T12:43:55.820Z,25.67
2024-05-09T12:44:55.813Z,26.38
2024-05-09T12:45:55.954Z,26.98
2024-05-09T12:46:55.799Z,27.97
2024-05-09T12:47:56.028Z,29.53
2024-05-09T12:48:56.116Z,30.04
2024-05-09T12:49:55.843Z,26.41
2024-05-09T12:50:55.826Z,27.82
2024-05-09T12:51:55.797Z,29.21
2024-05-09T12:52:55.765Z,29.49
2024-05-09T12:53:55.770Z,30.87
2024-05-09T12:54:55.770Z,30.58
2024-05-09T12:56:00.112Z,29.69